createdAt,value
2022-08-23T00:03:01.443Z,15.6
2022-08-23T00:09:06.493Z,15.6
2022-08-23T00:14:45.343Z,15.7
2022-08-23T00:20:32.804Z,15.8
2022-08-23T00:26:09.020Z,15.8
2022-08-23T00:31:53.907Z,15.8
2022-08-23T00:37:30.658Z,15.8
2022-08-23T00:43:35.398Z,15.8
2022-08-23T00:48:57.118Z,15.8
2022-08-23T00:54:44.404Z,15.9
2022-08-23T01:00:05.632Z,15.9
2022-08-23T01:05:49.093Z,15.9
2022-08-23T01:11:16.714Z,15.9
2022-08-23T01:16:46.313Z,15.9
2022-08-23T01:22:16.442Z,15.9
2022-08-23T01:28:48.655Z,16.1
2022-08-23T01:34:25.341Z,16.2
2022-08-23T01:40:14.718Z,16.3
2022-08-23T01:45:57.385Z,16.3
2022-08-23T01:51:33.011Z,16.5
2022-08-23T01:57:12.921Z,16.6
2022-08-23T02:02:39.809Z,16.6
2022-08-23T02:08:19.727Z,16.6
2022-08-23T02:14:05.701Z,16.6
2022-08-23T02:19:57.613Z,16.7
2022-08-23T02:25:34.001Z,16.8
2022-08-23T02:31:19.667Z,16.8
2022-08-23T02:37:06.029Z,16.7
2022-08-23T02:42:45.832Z,16.7
2022-08-23T02:47:56.121Z,16.6
2022-08-23T02:53:16.743Z,16.5
2022-08-23T02:59:03.289Z,16.4
2022-08-23T03:04:40.798Z,16.4
2022-08-23T03:10:39.568Z,16.3
2022-08-23T03:16:17.853Z,16.4
2022-08-23T03:21:54.187Z,16.4
2022-08-23T03:27:21.836Z,16.4
2022-08-23T03:33:23.097Z,16.4
2022-08-23T03:39:10.107Z,16.3
2022-08-23T03:44:49.615Z,16.3
2022-08-23T03:50:33.579Z,16.3
2022-08-23T03:56:16.503Z,16.3
2022-08-23T04:01:52.385Z,16.3
2022-08-23T04:07:28.938Z,16.3
2022-08-23T04:13:29.542Z,16.4
2022-08-23T04:19:09.140Z,16.4
2022-08-23T04:24:48.576Z,16.5
2022-08-23T04:31:04.548Z,16.6
2022-08-23T04:37:13.010Z,16.6
2022-08-23T04:43:01.023Z,16.7
2022-08-23T04:48:38.536Z,16.8
2022-08-23T04:54:21.290Z,16.9
2022-08-23T05:00:01.220Z,16.9
2022-08-23T05:05:40.430Z,17.1
2022-08-23T05:11:26.648Z,17.3
2022-08-23T05:17:09.045Z,17.4
2022-08-23T05:22:53.068Z,17.6
2022-08-23T05:28:47.244Z,17.9
2022-08-23T05:34:41.020Z,18.3
2022-08-23T05:40:31.393Z,18.8
2022-08-23T05:46:37.506Z,19.7
2022-08-23T05:52:28.035Z,21.5
2022-08-23T05:58:14.360Z,24.5
2022-08-23T06:04:03.481Z,27.5
2022-08-23T06:09:48.186Z,29.4
2022-08-23T06:15:30.725Z,31
2022-08-23T06:21:19.183Z,33.3
2022-08-23T06:26:40.164Z,35.2
2022-08-23T06:32:39.305Z,38.1
2022-08-23T06:38:52.376Z,44.8
2022-08-23T06:44:57.978Z,39.2
2022-08-23T06:51:07.494Z,40.4
2022-08-23T06:56:58.404Z,45.4
2022-08-23T07:03:11.267Z,40.7
2022-08-23T07:09:12.425Z,41.1
2022-08-23T07:14:53.940Z,38.5
2022-08-23T07:20:41.176Z,42.4
2022-08-23T07:26:22.263Z,44.9
2022-08-23T07:32:07.137Z,44.4
2022-08-23T07:37:49.680Z,46.8
2022-08-23T07:43:52.083Z,47.8
2022-08-23T07:49:46.865Z,44.1
2022-08-23T07:55:45.201Z,42.1
2022-08-23T08:01:23.838Z,41.6
2022-08-23T08:07:27.796Z,42.4
2022-08-23T08:13:07.693Z,41.3
2022-08-23T08:18:44.763Z,40.9
2022-08-23T08:24:12.176Z,41.1
2022-08-23T08:29:28.021Z,40.9
2022-08-23T08:34:52.712Z,40.7
2022-08-23T08:40:45.810Z,40
2022-08-23T08:46:32.708Z,42.4
2022-08-23T08:52:12.044Z,45.5
2022-08-23T08:58:02.696Z,42.3
2022-08-23T09:04:03.819Z,41.8
2022-08-23T09:09:47.215Z,41.4
2022-08-23T09:15:31.595Z,41.8
2022-08-23T09:21:10.516Z,42.8
2022-08-23T09:26:59.142Z,44.1
2022-08-23T09:32:38.440Z,47.9
2022-08-23T09:38:21.893Z,54.1
2022-08-23T09:43:51.704Z,56.1
2022-08-23T09:49:28.900Z,57.6
2022-08-23T09:55:17.954Z,56.4
2022-08-23T10:00:56.104Z,55.7
2022-08-23T10:06:48.811Z,52.8
2022-08-23T10:12:17.065Z,53.4
2022-08-23T10:17:56.698Z,52
2022-08-23T10:23:23.033Z,52.5
2022-08-23T10:29:03.039Z,52.1
2022-08-23T10:34:30.766Z,55.7
2022-08-23T10:40:03.616Z,55
2022-08-23T10:45:42.048Z,55.5
2022-08-23T10:51:31.400Z,58.9
2022-08-23T10:57:22.457Z,55.6
2022-08-23T11:03:03.897Z,54.6
2022-08-23T11:08:45.598Z,53.8
2022-08-23T11:14:41.429Z,55.3
2022-08-23T11:20:18.452Z,56.5
2022-08-23T11:25:56.059Z,56.5
2022-08-23T11:31:41.865Z,55.9
2022-08-23T11:37:28.238Z,55.6
2022-08-23T11:42:55.670Z,56.1
2022-08-23T11:48:33.452Z,56.6
2022-08-23T11:54:12.584Z,57.2
2022-08-23T12:10:55.452Z,57.1
2022-08-23T12:16:38.317Z,56.9
2022-08-23T12:22:36.302Z,57.3
2022-08-23T12:28:22.183Z,57.2
2022-08-23T12:34:08.943Z,56.1
2022-08-23T12:39:45.264Z,54.6
2022-08-23T12:45:18.407Z,52.6
2022-08-23T12:50:50.297Z,50.2
2022-08-23T12:56:31.504Z,50.2
2022-08-23T13:02:38.635Z,51
2022-08-23T13:19:10.727Z,52.5
2022-08-23T13:24:38.254Z,52.1
2022-08-23T13:30:30.169Z,51.7
2022-08-23T13:36:30.598Z,51.3
2022-08-23T13:42:12.835Z,50.1
2022-08-23T13:48:09.814Z,48
2022-08-23T13:54:50.791Z,45.1
2022-08-23T14:00:36.683Z,42.4
2022-08-23T14:06:18.274Z,39.4
2022-08-23T14:11:56.724Z,37.4
2022-08-23T14:18:32.678Z,35.8
2022-08-23T14:25:47.534Z,33.8
2022-08-23T14:31:34.168Z,32.4
2022-08-23T14:43:53.099Z,29.4
2022-08-23T14:49:36.807Z,28.3
2022-08-23T14:55:16.432Z,27
2022-08-23T15:01:14.944Z,25.9
2022-08-23T15:06:46.333Z,25.1
2022-08-23T15:14:50.894Z,24.3
2022-08-23T15:20:30.292Z,23.8
2022-08-23T15:26:27.986Z,23.5
2022-08-23T15:32:22.234Z,23.4
2022-08-23T15:38:18.080Z,23.3
2022-08-23T15:43:52.326Z,23.3
2022-08-23T15:49:17.695Z,23.3
2022-08-23T15:54:45.534Z,23.3
2022-08-23T16:00:26.551Z,23.4
2022-08-23T16:06:37.766Z,23.4
2022-08-23T16:12:18.025Z,23.6
2022-08-23T16:17:55.897Z,23.6
2022-08-23T16:23:36.668Z,23.6
2022-08-23T16:29:26.305Z,23.6
2022-08-23T16:35:19.967Z,23.4
2022-08-23T16:41:04.274Z,23.3
2022-08-23T16:46:41.434Z,23.2
2022-08-23T16:52:19.665Z,23.1
2022-08-23T16:58:17.612Z,22.8
2022-08-23T17:03:57.165Z,22.4
2022-08-23T17:09:41.905Z,22.1
2022-08-23T17:15:25.204Z,21.8
2022-08-23T17:21:02.796Z,21.5
2022-08-23T17:26:42.654Z,21.3
2022-08-23T17:32:32.051Z,21
2022-08-23T17:38:15.982Z,20.8
2022-08-23T17:43:46.231Z,20.5
2022-08-23T17:49:09.156Z,20.4
2022-08-23T17:54:34.854Z,20.2
2022-08-23T18:00:41.653Z,19.9
2022-08-23T18:06:34.167Z,19.8
2022-08-23T18:12:15.425Z,19.6
2022-08-23T18:17:57.549Z,19.4
2022-08-23T18:23:36.172Z,19.3
2022-08-23T18:29:22.911Z,19.2
2022-08-23T18:35:14.652Z,19.1
2022-08-23T18:41:04.944Z,18.9
2022-08-23T18:46:51.079Z,18.9
2022-08-23T18:52:48.405Z,18.8
2022-08-23T18:58:29.548Z,18.8
2022-08-23T19:04:08.450Z,18.8
2022-08-23T19:15:14.983Z,18.6
2022-08-23T19:20:52.843Z,18.4
2022-08-23T19:26:15.076Z,18.2
2022-08-23T19:31:42.906Z,18
2022-08-23T19:37:57.212Z,17.9
2022-08-23T19:43:24.893Z,17.7
2022-08-23T19:49:12.708Z,17.6
2022-08-23T19:55:00.791Z,17.4
2022-08-23T20:00:28.328Z,17.3
2022-08-23T20:05:50.883Z,17.2
2022-08-23T20:11:15.036Z,17.1
2022-08-23T20:16:52.331Z,17.1
2022-08-23T20:22:19.343Z,17.1
2022-08-23T20:28:26.525Z,17.2
2022-08-23T20:34:05.752Z,17.3
2022-08-23T20:39:28.998Z,17.3
2022-08-23T20:44:47.835Z,17.3
2022-08-23T20:50:19.143Z,17.3
2022-08-23T20:55:45.047Z,17.2
2022-08-23T21:01:13.866Z,17.2
2022-08-23T21:06:55.852Z,17.1
2022-08-23T21:12:30.458Z,17.1
2022-08-23T21:18:21.718Z,17.1
2022-08-23T21:29:32.543Z,16.9
2022-08-23T21:35:09.639Z,16.9
2022-08-23T21:40:47.743Z,16.9
2022-08-23T21:46:17.083Z,16.9
2022-08-23T21:51:40.499Z,17.1
2022-08-23T21:57:38.533Z,17.1
2022-08-23T22:03:16.601Z,17.1
2022-08-23T22:09:02.474Z,17.1
2022-08-23T22:14:50.047Z,17.1
2022-08-23T22:20:27.140Z,17.2
2022-08-23T22:25:54.497Z,17.3
2022-08-23T22:36:23.108Z,17.4
2022-08-23T22:42:18.044Z,17.4
2022-08-23T22:48:04.559Z,17.4
2022-08-23T22:53:45.168Z,17.4
2022-08-23T22:59:27.815Z,17.4
2022-08-23T23:05:34.366Z,17.4
2022-08-23T23:11:11.040Z,17.3
2022-08-23T23:16:18.179Z,17.2
2022-08-23T23:21:55.498Z,17.1
2022-08-23T23:27:36.050Z,16.9
2022-08-23T23:33:17.114Z,16.8
2022-08-23T23:39:01.495Z,16.8
2022-08-23T23:44:48.855Z,16.6
2022-08-23T23:50:27.528Z,16.6
2022-08-23T23:55:53.681Z,16.4
